sensor_id;sensor_type;location;lat;lon;timestamp;noise_LAeq;noise_LA_min;noise_LA_max;noise_LA01;noise_LA95
61249;Laerm;47119;49.130;9.218;2022-09-04T00:00:07;47.91;30.97;68.40;;
61249;Laerm;47119;49.130;9.218;2022-09-04T00:03:11;43.27;30.57;58.40;;
61249;Laerm;47119;49.130;9.218;2022-09-04T00:05:55;42.99;30.43;60.37;;
61249;Laerm;47119;49.130;9.218;2022-09-04T00:08:53;46.28;30.06;62.79;;
61249;Laerm;47119;49.130;9.218;2022-09-04T00:11:45;37.91;29.36;51.78;;
61249;Laerm;47119;49.130;9.218;2022-09-04T00:14:19;40.61;29.62;52.68;;
61249;Laerm;47119;49.130;9.218;2022-09-04T00:16:58;60.22;30.60;82.65;;
61249;Laerm;47119;49.130;9.218;2022-09-04T00:19:35;39.20;29.53;50.16;;
61249;Laerm;47119;49.130;9.218;2022-09-04T00:22:24;46.38;29.59;61.79;;
61249;Laerm;47119;49.130;9.218;2022-09-04T00:25:11;37.93;29.65;51.84;;
61249;Laerm;47119;49.130;9.218;2022-09-04T00:27:47;50.47;30.39;69.55;;
61249;Laerm;47119;49.130;9.218;2022-09-04T00:30:20;47.33;30.14;65.37;;
61249;Laerm;47119;49.130;9.218;2022-09-04T00:32:59;47.60;29.72;65.01;;
61249;Laerm;47119;49.130;9.218;2022-09-04T00:35:30;42.30;29.02;59.01;;
61249;Laerm;47119;49.130;9.218;2022-09-04T00:38:05;47.41;29.10;63.55;;
61249;Laerm;47119;49.130;9.218;2022-09-04T00:40:42;44.57;29.85;60.90;;
61249;Laerm;47119;49.130;9.218;2022-09-04T00:43:30;47.26;30.95;66.27;;
61249;Laerm;47119;49.130;9.218;2022-09-04T00:49:54;45.43;29.63;65.25;;
61249;Laerm;47119;49.130;9.218;2022-09-04T00:56:03;42.07;29.44;61.84;;
61249;Laerm;47119;49.130;9.218;2022-09-04T00:59:01;40.27;28.80;54.11;;
61249;Laerm;47119;49.130;9.218;2022-09-04T01:01:30;47.67;28.92;69.06;;
61249;Laerm;47119;49.130;9.218;2022-09-04T01:04:32;44.15;29.30;63.07;;
61249;Laerm;47119;49.130;9.218;2022-09-04T01:07:26;37.84;29.12;51.14;;
61249;Laerm;47119;49.130;9.218;2022-09-04T01:10:25;39.96;30.02;48.41;;
61249;Laerm;47119;49.130;9.218;2022-09-04T01:13:10;44.38;30.36;64.35;;
61249;Laerm;47119;49.130;9.218;2022-09-04T01:15:44;47.88;33.32;59.96;;
61249;Laerm;47119;49.130;9.218;2022-09-04T01:18:28;41.00;29.42;51.31;;
61249;Laerm;47119;49.130;9.218;2022-09-04T01:24:27;40.29;29.74;53.47;;
61249;Laerm;47119;49.130;9.218;2022-09-04T01:27:23;43.20;29.06;62.83;;
61249;Laerm;47119;49.130;9.218;2022-09-04T01:30:09;42.47;29.68;59.64;;
61249;Laerm;47119;49.130;9.218;2022-09-04T01:32:52;49.49;29.68;65.83;;
61249;Laerm;47119;49.130;9.218;2022-09-04T01:35:33;42.17;29.64;61.90;;
61249;Laerm;47119;49.130;9.218;2022-09-04T01:38:13;44.78;30.01;64.24;;
61249;Laerm;47119;49.130;9.218;2022-09-04T01:40:51;38.80;29.84;49.47;;
61249;Laerm;47119;49.130;9.218;2022-09-04T01:43:25;37.34;29.50;47.46;;
61249;Laerm;47119;49.130;9.218;2022-09-04T01:46:29;43.15;29.04;63.05;;
61249;Laerm;47119;49.130;9.218;2022-09-04T01:49:09;41.88;29.61;56.23;;
61249;Laerm;47119;49.130;9.218;2022-09-04T01:51:50;45.73;28.91;65.92;;
61249;Laerm;47119;49.130;9.218;2022-09-04T01:54:39;37.89;28.94;50.79;;
61249;Laerm;47119;49.130;9.218;2022-09-04T01:57:30;36.95;29.37;48.07;;
61249;Laerm;47119;49.130;9.218;2022-09-04T02:00:09;39.45;29.68;57.56;;
61249;Laerm;47119;49.130;9.218;2022-09-04T02:02:54;39.25;29.76;52.04;;
61249;Laerm;47119;49.130;9.218;2022-09-04T02:05:33;36.30;29.40;52.18;;
61249;Laerm;47119;49.130;9.218;2022-09-04T02:08:34;46.97;28.97;68.27;;
61249;Laerm;47119;49.130;9.218;2022-09-04T02:11:14;44.12;28.97;64.81;;
61249;Laerm;47119;49.130;9.218;2022-09-04T02:14:07;36.38;29.04;48.21;;
61249;Laerm;47119;49.130;9.218;2022-09-04T02:16:54;40.08;29.28;55.41;;
61249;Laerm;47119;49.130;9.218;2022-09-04T02:19:43;41.17;30.36;56.23;;
61249;Laerm;47119;49.130;9.218;2022-09-04T02:22:27;36.71;29.16;47.56;;
61249;Laerm;47119;49.130;9.218;2022-09-04T02:25:08;46.74;29.30;65.96;;
61249;Laerm;47119;49.130;9.218;2022-09-04T02:27:50;33.27;28.65;44.57;;
61249;Laerm;47119;49.130;9.218;2022-09-04T02:30:21;33.50;28.72;43.88;;
61249;Laerm;47119;49.130;9.218;2022-09-04T02:33:02;38.13;28.55;52.88;;
61249;Laerm;47119;49.130;9.218;2022-09-04T02:35:42;44.56;28.91;66.25;;
61249;Laerm;47119;49.130;9.218;2022-09-04T02:38:26;37.43;29.06;49.72;;
61249;Laerm;47119;49.130;9.218;2022-09-04T02:41:10;47.26;30.04;66.23;;
61249;Laerm;47119;49.130;9.218;2022-09-04T02:44:04;44.07;29.74;64.58;;
61249;Laerm;47119;49.130;9.218;2022-09-04T02:46:52;45.70;29.11;67.71;;
61249;Laerm;47119;49.130;9.218;2022-09-04T02:49:41;36.82;29.11;47.48;;
61249;Laerm;47119;49.130;9.218;2022-09-04T02:52:35;40.85;29.96;58.11;;
61249;Laerm;47119;49.130;9.218;2022-09-04T02:55:25;53.06;29.52;74.98;;
61249;Laerm;47119;49.130;9.218;2022-09-04T02:58:13;35.43;29.74;48.34;;
61249;Laerm;47119;49.130;9.218;2022-09-04T03:00:51;35.53;29.30;50.51;;
61249;Laerm;47119;49.130;9.218;2022-09-04T03:03:30;37.63;29.58;57.19;;
61249;Laerm;47119;49.130;9.218;2022-09-04T03:06:08;35.75;28.95;52.08;;
61249;Laerm;47119;49.130;9.218;2022-09-04T03:08:46;31.33;28.86;36.20;;
61249;Laerm;47119;49.130;9.218;2022-09-04T03:11:25;45.07;28.96;63.23;;
61249;Laerm;47119;49.130;9.218;2022-09-04T03:14:04;44.36;29.57;61.60;;
61249;Laerm;47119;49.130;9.218;2022-09-04T03:16:51;44.13;30.21;63.05;;
61249;Laerm;47119;49.130;9.218;2022-09-04T03:19:28;42.42;28.50;56.42;;
61249;Laerm;47119;49.130;9.218;2022-09-04T03:22:14;41.04;29.21;52.56;;
61249;Laerm;47119;49.130;9.218;2022-09-04T03:25:04;43.23;29.50;62.98;;
61249;Laerm;47119;49.130;9.218;2022-09-04T03:27:38;45.94;29.37;58.94;;
61249;Laerm;47119;49.130;9.218;2022-09-04T03:30:08;32.37;29.01;41.28;;
61249;Laerm;47119;49.130;9.218;2022-09-04T03:32:48;36.84;28.99;47.76;;
61249;Laerm;47119;49.130;9.218;2022-09-04T03:35:30;35.66;29.38;47.96;;
61249;Laerm;47119;49.130;9.218;2022-09-04T03:38:17;37.82;30.14;51.08;;
61249;Laerm;47119;49.130;9.218;2022-09-04T03:41:14;45.37;30.44;62.67;;
61249;Laerm;47119;49.130;9.218;2022-09-04T03:44:11;44.94;28.96;65.30;;
61249;Laerm;47119;49.130;9.218;2022-09-04T03:46:58;53.04;30.47;78.74;;
61249;Laerm;47119;49.130;9.218;2022-09-04T03:49:45;37.21;29.51;48.68;;
61249;Laerm;47119;49.130;9.218;2022-09-04T03:52:23;40.92;29.21;56.46;;
61249;Laerm;47119;49.130;9.218;2022-09-04T03:58:23;45.97;29.41;66.20;;
61249;Laerm;47119;49.130;9.218;2022-09-04T04:01:05;44.04;29.36;63.99;;
61249;Laerm;47119;49.130;9.218;2022-09-04T04:03:56;39.58;29.67;52.48;;
61249;Laerm;47119;49.130;9.218;2022-09-04T04:06:36;43.73;30.27;62.95;;
61249;Laerm;47119;49.130;9.218;2022-09-04T04:09:31;41.80;29.88;69.22;;
61249;Laerm;47119;49.130;9.218;2022-09-04T04:12:29;40.32;30.22;59.32;;
61249;Laerm;47119;49.130;9.218;2022-09-04T04:15:12;46.65;30.27;66.23;;
61249;Laerm;47119;49.130;9.218;2022-09-04T04:18:06;49.04;30.46;74.44;;
61249;Laerm;47119;49.130;9.218;2022-09-04T04:20:47;43.39;30.91;59.92;;
61249;Laerm;47119;49.130;9.218;2022-09-04T04:23:58;37.43;29.89;47.14;;
61249;Laerm;47119;49.130;9.218;2022-09-04T04:26:48;43.45;30.58;60.26;;
61249;Laerm;47119;49.130;9.218;2022-09-04T04:29:47;38.26;29.58;49.30;;
61249;Laerm;47119;49.130;9.218;2022-09-04T04:32:36;44.34;30.55;62.78;;
61249;Laerm;47119;49.130;9.218;2022-09-04T04:35:28;40.82;30.21;50.26;;
61249;Laerm;47119;49.130;9.218;2022-09-04T04:38:21;45.20;30.24;62.09;;
61249;Laerm;47119;49.130;9.218;2022-09-04T04:41:17;37.38;30.14;57.30;;
61249;Laerm;47119;49.130;9.218;2022-09-04T04:44:03;37.31;29.22;50.88;;
61249;Laerm;47119;49.130;9.218;2022-09-04T04:46:53;40.08;30.22;52.98;;
61249;Laerm;47119;49.130;9.218;2022-09-04T04:49:46;44.44;30.40;63.86;;
61249;Laerm;47119;49.130;9.218;2022-09-04T04:52:34;57.88;30.61;83.40;;
61249;Laerm;47119;49.130;9.218;2022-09-04T04:55:19;43.59;31.11;60.99;;
61249;Laerm;47119;49.130;9.218;2022-09-04T04:58:26;40.25;30.19;59.04;;
61249;Laerm;47119;49.130;9.218;2022-09-04T05:01:10;35.91;29.91;46.25;;
61249;Laerm;47119;49.130;9.218;2022-09-04T05:04:05;41.04;30.84;55.57;;
61249;Laerm;47119;49.130;9.218;2022-09-04T05:06:47;47.14;29.87;64.73;;
61249;Laerm;47119;49.130;9.218;2022-09-04T05:09:33;44.57;29.86;62.50;;
61249;Laerm;47119;49.130;9.218;2022-09-04T05:12:15;42.63;31.04;57.87;;
61249;Laerm;47119;49.130;9.218;2022-09-04T05:14:53;44.75;30.69;60.89;;
61249;Laerm;47119;49.130;9.218;2022-09-04T05:17:30;46.50;30.69;63.09;;
61249;Laerm;47119;49.130;9.218;2022-09-04T05:20:28;43.05;30.61;63.23;;
61249;Laerm;47119;49.130;9.218;2022-09-04T05:23:16;45.14;31.58;61.01;;
61249;Laerm;47119;49.130;9.218;2022-09-04T05:25:53;42.73;30.28;55.72;;
61249;Laerm;47119;49.130;9.218;2022-09-04T05:28:41;50.75;31.46;71.87;;
61249;Laerm;47119;49.130;9.218;2022-09-04T05:31:37;41.60;30.01;60.85;;
61249;Laerm;47119;49.130;9.218;2022-09-04T05:34:19;39.64;29.84;59.41;;
61249;Laerm;47119;49.130;9.218;2022-09-04T05:37:02;38.74;29.23;53.86;;
61249;Laerm;47119;49.130;9.218;2022-09-04T05:39:55;38.84;29.33;53.09;;
61249;Laerm;47119;49.130;9.218;2022-09-04T05:43:02;38.02;29.34;48.84;;
61249;Laerm;47119;49.130;9.218;2022-09-04T05:45:48;36.13;29.77;47.00;;
61249;Laerm;47119;49.130;9.218;2022-09-04T05:48:23;47.12;29.51;65.95;;
61249;Laerm;47119;49.130;9.218;2022-09-04T05:51:47;48.83;29.99;71.22;;
61249;Laerm;47119;49.130;9.218;2022-09-04T05:57:57;43.30;30.43;61.97;;
61249;Laerm;47119;49.130;9.218;2022-09-04T06:00:50;39.82;30.87;50.34;;
61249;Laerm;47119;49.130;9.218;2022-09-04T06:04:14;44.27;30.91;63.19;;
61249;Laerm;47119;49.130;9.218;2022-09-04T06:07:01;44.02;31.70;64.78;;
61249;Laerm;47119;49.130;9.218;2022-09-04T06:09:49;40.20;31.31;58.52;;
61249;Laerm;47119;49.130;9.218;2022-09-04T06:13:20;42.05;31.31;58.50;;
61249;Laerm;47119;49.130;9.218;2022-09-04T06:16:15;52.33;31.51;73.85;;
61249;Laerm;47119;49.130;9.218;2022-09-04T06:19:22;44.75;34.31;57.75;;
61249;Laerm;47119;49.130;9.218;2022-09-04T06:26:06;44.94;31.42;65.55;;
61249;Laerm;47119;49.130;9.218;2022-09-04T06:29:24;42.62;31.96;56.90;;
61249;Laerm;47119;49.130;9.218;2022-09-04T06:32:24;39.57;32.12;49.52;;
61249;Laerm;47119;49.130;9.218;2022-09-04T06:35:16;46.37;33.16;67.10;;
61249;Laerm;47119;49.130;9.218;2022-09-04T06:38:08;39.06;32.29;49.14;;
61249;Laerm;47119;49.130;9.218;2022-09-04T06:40:56;46.97;33.06;67.74;;
61249;Laerm;47119;49.130;9.218;2022-09-04T06:43:36;43.41;33.04;55.50;;
61249;Laerm;47119;49.130;9.218;2022-09-04T06:46:26;47.38;34.11;60.83;;
61249;Laerm;47119;49.130;9.218;2022-09-04T06:49:12;48.71;35.83;64.90;;
61249;Laerm;47119;49.130;9.218;2022-09-04T06:52:21;43.95;32.34;62.32;;
61249;Laerm;47119;49.130;9.218;2022-09-04T06:54:58;47.56;32.09;65.38;;
61249;Laerm;47119;49.130;9.218;2022-09-04T06:57:51;46.69;32.59;62.52;;
61249;Laerm;47119;49.130;9.218;2022-09-04T07:00:22;43.89;33.00;60.30;;
61249;Laerm;47119;49.130;9.218;2022-09-04T07:03:25;51.06;34.07;66.01;;
61249;Laerm;47119;49.130;9.218;2022-09-04T07:06:08;47.30;31.71;67.52;;
61249;Laerm;47119;49.130;9.218;2022-09-04T07:08:55;46.65;33.85;63.10;;
61249;Laerm;47119;49.130;9.218;2022-09-04T07:11:49;48.42;32.74;65.14;;
61249;Laerm;47119;49.130;9.218;2022-09-04T07:14:40;50.48;35.50;63.77;;
61249;Laerm;47119;49.130;9.218;2022-09-04T07:17:22;47.94;33.75;64.29;;
61249;Laerm;47119;49.130;9.218;2022-09-04T07:20:12;58.29;33.98;82.00;;
61249;Laerm;47119;49.130;9.218;2022-09-04T07:22:56;45.37;32.47;60.88;;
61249;Laerm;47119;49.130;9.218;2022-09-04T07:25:42;45.78;33.70;63.05;;
61249;Laerm;47119;49.130;9.218;2022-09-04T07:28:45;45.84;33.94;63.82;;
61249;Laerm;47119;49.130;9.218;2022-09-04T07:31:22;52.61;35.32;69.70;;
61249;Laerm;47119;49.130;9.218;2022-09-04T07:34:05;52.09;43.44;66.61;;
61249;Laerm;47119;49.130;9.218;2022-09-04T07:36:41;50.02;36.69;65.39;;
61249;Laerm;47119;49.130;9.218;2022-09-04T07:39:21;48.31;34.98;61.98;;
61249;Laerm;47119;49.130;9.218;2022-09-04T07:41:57;46.31;34.91;60.23;;
61249;Laerm;47119;49.130;9.218;2022-09-04T07:44:38;47.14;35.41;64.54;;
61249;Laerm;47119;49.130;9.218;2022-09-04T07:47:17;50.22;36.76;69.59;;
61249;Laerm;47119;49.130;9.218;2022-09-04T07:49:57;51.62;38.35;69.33;;
61249;Laerm;47119;49.130;9.218;2022-09-04T07:53:01;50.94;35.95;64.02;;
61249;Laerm;47119;49.130;9.218;2022-09-04T07:55:37;46.41;36.65;62.37;;
61249;Laerm;47119;49.130;9.218;2022-09-04T07:58:47;52.31;39.32;77.45;;
61249;Laerm;47119;49.130;9.218;2022-09-04T08:01:51;54.70;48.39;66.29;;
61249;Laerm;47119;49.130;9.218;2022-09-04T08:08:16;57.36;35.17;78.33;;
61249;Laerm;47119;49.130;9.218;2022-09-04T08:11:05;49.92;35.32;63.67;;
61249;Laerm;47119;49.130;9.218;2022-09-04T08:14:22;44.34;35.56;58.46;;
61249;Laerm;47119;49.130;9.218;2022-09-04T08:18:00;51.33;35.95;71.16;;
61249;Laerm;47119;49.130;9.218;2022-09-04T08:21:03;53.49;37.79;76.54;;
61249;Laerm;47119;49.130;9.218;2022-09-04T08:24:27;50.23;34.80;74.17;;
61249;Laerm;47119;49.130;9.218;2022-09-04T08:27:09;47.99;37.77;74.42;;
61249;Laerm;47119;49.130;9.218;2022-09-04T08:30:06;47.11;36.23;61.68;;
61249;Laerm;47119;49.130;9.218;2022-09-04T08:35:56;51.42;37.72;65.36;;
61249;Laerm;47119;49.130;9.218;2022-09-04T08:38:45;47.04;36.63;61.75;;
61249;Laerm;47119;49.130;9.218;2022-09-04T08:42:09;49.46;37.35;61.18;;
61249;Laerm;47119;49.130;9.218;2022-09-04T08:45:46;52.00;38.67;66.43;;
61249;Laerm;47119;49.130;9.218;2022-09-04T08:55:47;48.89;37.86;63.16;;
61249;Laerm;47119;49.130;9.218;2022-09-04T09:09:07;50.99;38.14;63.62;;
61249;Laerm;47119;49.130;9.218;2022-09-04T09:15:24;49.83;34.94;70.13;;
61249;Laerm;47119;49.130;9.218;2022-09-04T09:18:01;55.59;36.38;69.72;;
61249;Laerm;47119;49.130;9.218;2022-09-04T09:20:48;52.69;35.71;63.70;;
61249;Laerm;47119;49.130;9.218;2022-09-04T09:23:37;47.26;36.81;59.96;;
61249;Laerm;47119;49.130;9.218;2022-09-04T09:26:25;49.00;36.30;65.68;;
61249;Laerm;47119;49.130;9.218;2022-09-04T09:29:39;54.37;37.63;67.65;;
61249;Laerm;47119;49.130;9.218;2022-09-04T09:33:45;51.20;37.57;69.42;;
61249;Laerm;47119;49.130;9.218;2022-09-04T09:37:40;50.48;38.13;69.78;;
61249;Laerm;47119;49.130;9.218;2022-09-04T09:41:37;48.62;37.67;65.02;;
61249;Laerm;47119;49.130;9.218;2022-09-04T09:44:48;50.77;37.44;64.15;;
61249;Laerm;47119;49.130;9.218;2022-09-04T09:48:31;51.35;36.32;68.86;;
61249;Laerm;47119;49.130;9.218;2022-09-04T09:51:52;50.26;37.80;66.11;;
61249;Laerm;47119;49.130;9.218;2022-09-04T10:02:10;48.90;38.52;62.85;;
61249;Laerm;47119;49.130;9.218;2022-09-04T10:05:28;49.36;35.89;60.54;;
61249;Laerm;47119;49.130;9.218;2022-09-04T10:08:29;49.32;39.94;65.43;;
61249;Laerm;47119;49.130;9.218;2022-09-04T10:12:32;51.37;37.74;66.90;;
61249;Laerm;47119;49.130;9.218;2022-09-04T10:23:17;55.42;36.18;75.06;;
61249;Laerm;47119;49.130;9.218;2022-09-04T10:26:31;48.05;35.33;63.70;;
61249;Laerm;47119;49.130;9.218;2022-09-04T10:29:43;48.51;37.03;62.81;;
61249;Laerm;47119;49.130;9.218;2022-09-04T10:33:02;50.98;37.79;66.90;;
61249;Laerm;47119;49.130;9.218;2022-09-04T10:36:03;54.42;39.22;70.90;;
61249;Laerm;47119;49.130;9.218;2022-09-04T10:38:51;52.66;38.33;70.75;;
61249;Laerm;47119;49.130;9.218;2022-09-04T10:42:05;54.13;37.46;74.17;;
61249;Laerm;47119;49.130;9.218;2022-09-04T10:44:52;52.97;38.43;72.56;;
61249;Laerm;47119;49.130;9.218;2022-09-04T10:47:48;49.51;39.49;71.34;;
61249;Laerm;47119;49.130;9.218;2022-09-04T10:54:20;58.91;38.62;78.70;;
61249;Laerm;47119;49.130;9.218;2022-09-04T10:57:07;53.28;36.91;71.91;;
61249;Laerm;47119;49.130;9.218;2022-09-04T11:00:00;52.11;39.04;66.66;;
61249;Laerm;47119;49.130;9.218;2022-09-04T11:03:26;50.04;39.21;64.91;;
61249;Laerm;47119;49.130;9.218;2022-09-04T11:10:02;53.01;39.17;69.20;;
61249;Laerm;47119;49.130;9.218;2022-09-04T11:16:20;48.20;36.85;64.18;;
61249;Laerm;47119;49.130;9.218;2022-09-04T11:23:11;52.32;39.31;65.67;;
61249;Laerm;47119;49.130;9.218;2022-09-04T11:26:12;51.49;39.05;66.79;;
61249;Laerm;47119;49.130;9.218;2022-09-04T11:29:27;49.07;39.00;64.86;;
61249;Laerm;47119;49.130;9.218;2022-09-04T11:32:24;54.20;37.07;73.30;;
61249;Laerm;47119;49.130;9.218;2022-09-04T11:42:35;51.52;38.89;67.11;;
61249;Laerm;47119;49.130;9.218;2022-09-04T11:45:51;50.16;38.90;63.34;;
61249;Laerm;47119;49.130;9.218;2022-09-04T11:52:32;51.34;39.62;67.21;;
61249;Laerm;47119;49.130;9.218;2022-09-04T11:55:28;51.07;38.85;65.59;;
61249;Laerm;47119;49.130;9.218;2022-09-04T11:58:45;49.73;38.95;62.56;;
61249;Laerm;47119;49.130;9.218;2022-09-04T12:01:35;51.64;39.61;66.59;;
61249;Laerm;47119;49.130;9.218;2022-09-04T12:04:57;59.45;39.74;83.54;;
61249;Laerm;47119;49.130;9.218;2022-09-04T12:07:56;50.60;37.10;64.88;;
61249;Laerm;47119;49.130;9.218;2022-09-04T12:10:53;50.87;38.48;62.67;;
61249;Laerm;47119;49.130;9.218;2022-09-04T12:17:21;55.49;40.59;75.79;;
61249;Laerm;47119;49.130;9.218;2022-09-04T12:20:31;52.50;37.62;69.35;;
61249;Laerm;47119;49.130;9.218;2022-09-04T12:23:32;49.47;37.45;64.78;;
61249;Laerm;47119;49.130;9.218;2022-09-04T12:26:59;50.62;35.20;70.42;;
61249;Laerm;47119;49.130;9.218;2022-09-04T12:30:04;55.11;39.20;70.15;;
61249;Laerm;47119;49.130;9.218;2022-09-04T12:33:15;49.76;38.23;64.03;;
61249;Laerm;47119;49.130;9.218;2022-09-04T12:42:15;50.03;36.84;64.69;;
61249;Laerm;47119;49.130;9.218;2022-09-04T12:45:01;52.78;38.46;63.83;;
61249;Laerm;47119;49.130;9.218;2022-09-04T12:47:49;50.36;36.12;64.22;;
61249;Laerm;47119;49.130;9.218;2022-09-04T12:50:35;50.42;38.94;66.29;;
61249;Laerm;47119;49.130;9.218;2022-09-04T12:53:43;54.54;38.13;79.75;;
61249;Laerm;47119;49.130;9.218;2022-09-04T12:56:45;55.02;39.84;71.04;;
61249;Laerm;47119;49.130;9.218;2022-09-04T13:00:04;56.17;38.13;78.41;;
61249;Laerm;47119;49.130;9.218;2022-09-04T13:02:58;50.94;37.42;65.75;;
61249;Laerm;47119;49.130;9.218;2022-09-04T13:05:50;52.91;37.51;67.60;;
61249;Laerm;47119;49.130;9.218;2022-09-04T13:08:35;50.18;37.83;64.68;;
61249;Laerm;47119;49.130;9.218;2022-09-04T13:11:35;48.71;39.51;62.23;;
61249;Laerm;47119;49.130;9.218;2022-09-04T13:18:02;51.44;39.14;67.16;;
61249;Laerm;47119;49.130;9.218;2022-09-04T13:20:45;50.51;37.80;64.53;;
61249;Laerm;47119;49.130;9.218;2022-09-04T13:23:39;50.41;39.34;66.68;;
61249;Laerm;47119;49.130;9.218;2022-09-04T13:26:25;53.01;40.68;69.19;;
61249;Laerm;47119;49.130;9.218;2022-09-04T13:29:12;52.82;40.99;66.07;;
61249;Laerm;47119;49.130;9.218;2022-09-04T13:32:24;51.02;37.73;65.47;;
61249;Laerm;47119;49.130;9.218;2022-09-04T13:35:10;49.89;36.22;69.35;;
61249;Laerm;47119;49.130;9.218;2022-09-04T13:37:58;50.91;38.01;63.02;;
61249;Laerm;47119;49.130;9.218;2022-09-04T13:41:08;50.68;39.15;66.20;;
61249;Laerm;47119;49.130;9.218;2022-09-04T13:44:00;55.07;40.63;71.96;;
61249;Laerm;47119;49.130;9.218;2022-09-04T13:46:38;49.67;37.20;64.26;;
61249;Laerm;47119;49.130;9.218;2022-09-04T13:49:13;48.60;36.80;66.18;;
61249;Laerm;47119;49.130;9.218;2022-09-04T13:51:47;50.47;38.21;65.36;;
61249;Laerm;47119;49.130;9.218;2022-09-04T13:54:25;49.84;39.88;64.56;;
61249;Laerm;47119;49.130;9.218;2022-09-04T13:57:02;52.41;37.32;69.05;;
61249;Laerm;47119;49.130;9.218;2022-09-04T13:59:32;50.11;37.16;64.98;;
61249;Laerm;47119;49.130;9.218;2022-09-04T14:02:05;51.03;37.31;64.79;;
61249;Laerm;47119;49.130;9.218;2022-09-04T14:04:40;48.92;36.52;65.41;;
61249;Laerm;47119;49.130;9.218;2022-09-04T14:07:22;53.80;40.26;71.67;;
61249;Laerm;47119;49.130;9.218;2022-09-04T14:09:57;50.90;38.53;67.14;;
61249;Laerm;47119;49.130;9.218;2022-09-04T14:12:50;51.04;36.26;66.47;;
61249;Laerm;47119;49.130;9.218;2022-09-04T14:16:00;53.72;38.18;72.90;;
61249;Laerm;47119;49.130;9.218;2022-09-04T14:21:54;51.45;36.18;71.05;;
61249;Laerm;47119;49.130;9.218;2022-09-04T14:24:39;50.27;36.37;67.15;;
61249;Laerm;47119;49.130;9.218;2022-09-04T14:27:20;54.36;38.90;78.49;;
61249;Laerm;47119;49.130;9.218;2022-09-04T14:30:02;50.97;38.99;66.41;;
61249;Laerm;47119;49.130;9.218;2022-09-04T14:32:48;55.26;36.10;70.02;;
61249;Laerm;47119;49.130;9.218;2022-09-04T14:35:32;51.02;36.78;66.09;;
61249;Laerm;47119;49.130;9.218;2022-09-04T14:38:23;48.82;36.55;63.17;;
61249;Laerm;47119;49.130;9.218;2022-09-04T14:41:07;48.19;38.04;62.14;;
61249;Laerm;47119;49.130;9.218;2022-09-04T14:43:54;50.40;37.97;64.24;;
61249;Laerm;47119;49.130;9.218;2022-09-04T14:46:36;52.77;39.10;68.20;;
61249;Laerm;47119;49.130;9.218;2022-09-04T14:49:10;54.38;39.60;70.37;;
61249;Laerm;47119;49.130;9.218;2022-09-04T14:51:44;57.03;39.24;85.31;;
61249;Laerm;47119;49.130;9.218;2022-09-04T14:54:23;56.21;38.14;74.99;;
61249;Laerm;47119;49.130;9.218;2022-09-04T14:56:59;60.14;36.59;83.39;;
61249;Laerm;47119;49.130;9.218;2022-09-04T14:59:36;52.41;38.77;64.45;;
61249;Laerm;47119;49.130;9.218;2022-09-04T15:02:22;50.59;35.69;68.97;;
61249;Laerm;47119;49.130;9.218;2022-09-04T15:04:59;54.44;38.47;71.28;;
61249;Laerm;47119;49.130;9.218;2022-09-04T15:07:49;50.89;35.70;67.21;;
61249;Laerm;47119;49.130;9.218;2022-09-04T15:10:24;50.63;39.95;64.72;;
61249;Laerm;47119;49.130;9.218;2022-09-04T15:13:46;50.44;35.56;66.34;;
61249;Laerm;47119;49.130;9.218;2022-09-04T15:16:21;54.23;41.24;67.10;;
61249;Laerm;47119;49.130;9.218;2022-09-04T15:18:56;55.32;36.87;76.58;;
61249;Laerm;47119;49.130;9.218;2022-09-04T15:21:35;48.34;35.86;61.02;;
61249;Laerm;47119;49.130;9.218;2022-09-04T15:24:20;51.33;36.46;64.54;;
61249;Laerm;47119;49.130;9.218;2022-09-04T15:26:58;51.83;38.65;68.40;;
61249;Laerm;47119;49.130;9.218;2022-09-04T15:29:37;56.63;40.64;74.84;;
61249;Laerm;47119;49.130;9.218;2022-09-04T15:32:11;49.78;36.89;65.29;;
61249;Laerm;47119;49.130;9.218;2022-09-04T15:34:46;54.15;35.63;70.67;;
61249;Laerm;47119;49.130;9.218;2022-09-04T15:37:19;53.41;39.49;68.99;;
61249;Laerm;47119;49.130;9.218;2022-09-04T15:39:57;49.63;36.36;63.71;;
61249;Laerm;47119;49.130;9.218;2022-09-04T15:42:37;50.67;41.17;70.64;;
61249;Laerm;47119;49.130;9.218;2022-09-04T15:45:18;52.33;39.37;68.21;;
61249;Laerm;47119;49.130;9.218;2022-09-04T15:48:17;48.68;37.37;67.11;;
61249;Laerm;47119;49.130;9.218;2022-09-04T15:50:57;53.59;36.18;68.78;;
61249;Laerm;47119;49.130;9.218;2022-09-04T15:53:31;48.61;36.02;61.81;;
61249;Laerm;47119;49.130;9.218;2022-09-04T15:56:06;48.91;36.38;61.89;;
61249;Laerm;47119;49.130;9.218;2022-09-04T15:58:46;49.11;34.43;66.67;;
61249;Laerm;47119;49.130;9.218;2022-09-04T16:01:25;47.97;35.55;61.66;;
61249;Laerm;47119;49.130;9.218;2022-09-04T16:04:02;54.01;37.05;69.84;;
61249;Laerm;47119;49.130;9.218;2022-09-04T16:06:44;62.23;41.54;84.16;;
61249;Laerm;47119;49.130;9.218;2022-09-04T16:09:21;51.96;38.53;66.96;;
61249;Laerm;47119;49.130;9.218;2022-09-04T16:12:01;48.17;35.02;65.27;;
61249;Laerm;47119;49.130;9.218;2022-09-04T16:14:42;53.70;37.87;70.02;;
61249;Laerm;47119;49.130;9.218;2022-09-04T16:17:15;48.71;37.57;61.97;;
61249;Laerm;47119;49.130;9.218;2022-09-04T16:19:59;52.81;37.80;65.54;;
61249;Laerm;47119;49.130;9.218;2022-09-04T16:22:36;51.72;38.45;70.92;;
61249;Laerm;47119;49.130;9.218;2022-09-04T16:25:23;50.26;38.27;64.31;;
61249;Laerm;47119;49.130;9.218;2022-09-04T16:27:58;48.85;37.01;70.80;;
61249;Laerm;47119;49.130;9.218;2022-09-04T16:30:37;52.42;38.13;68.42;;
61249;Laerm;47119;49.130;9.218;2022-09-04T16:33:19;52.83;37.39;68.87;;
61249;Laerm;47119;49.130;9.218;2022-09-04T16:35:50;52.86;37.22;64.64;;
61249;Laerm;47119;49.130;9.218;2022-09-04T16:38:22;53.65;39.85;67.95;;
61249;Laerm;47119;49.130;9.218;2022-09-04T16:40:56;52.48;39.43;69.90;;
61249;Laerm;47119;49.130;9.218;2022-09-04T16:43:27;49.61;40.09;67.88;;
61249;Laerm;47119;49.130;9.218;2022-09-04T16:46:10;51.02;38.49;64.83;;
61249;Laerm;47119;49.130;9.218;2022-09-04T16:48:48;51.76;40.08;65.16;;
61249;Laerm;47119;49.130;9.218;2022-09-04T16:51:26;50.39;40.30;65.08;;
61249;Laerm;47119;49.130;9.218;2022-09-04T16:54:02;56.34;41.28;71.47;;
61249;Laerm;47119;49.130;9.218;2022-09-04T16:56:37;51.54;37.34;67.71;;
61249;Laerm;47119;49.130;9.218;2022-09-04T16:59:19;49.72;37.21;61.96;;
61249;Laerm;47119;49.130;9.218;2022-09-04T17:01:58;47.32;35.33;65.65;;
61249;Laerm;47119;49.130;9.218;2022-09-04T17:04:36;50.58;36.64;66.12;;
61249;Laerm;47119;49.130;9.218;2022-09-04T17:07:16;51.56;34.38;67.88;;
61249;Laerm;47119;49.130;9.218;2022-09-04T17:09:56;50.09;37.74;60.26;;
61249;Laerm;47119;49.130;9.218;2022-09-04T17:12:51;53.17;41.58;76.58;;
61249;Laerm;47119;49.130;9.218;2022-09-04T17:15:29;52.78;36.87;70.88;;
61249;Laerm;47119;49.130;9.218;2022-09-04T17:18:05;53.48;35.30;66.12;;
61249;Laerm;47119;49.130;9.218;2022-09-04T17:20:45;49.98;35.84;67.67;;
61249;Laerm;47119;49.130;9.218;2022-09-04T17:23:26;50.81;35.23;63.69;;
61249;Laerm;47119;49.130;9.218;2022-09-04T17:26:05;47.79;32.32;60.23;;
61249;Laerm;47119;49.130;9.218;2022-09-04T17:28:45;50.67;36.04;66.43;;
61249;Laerm;47119;49.130;9.218;2022-09-04T17:31:23;49.14;36.14;62.08;;
61249;Laerm;47119;49.130;9.218;2022-09-04T17:33:59;50.15;37.91;65.41;;